< < Back
Terminal Aerodrome Forecast


Current Version              Previous Versions:   1  2  3  4  5  6  7  8  9  

Terminal Aerodrome Forecast

440
FTUS44 KBMX 211100
TAFANB
TAF
KANB 211126Z 2112/2212 32006KT P6SM SKC=

Latest METAR

118
SAUS70 KWBC 211200 RRP
MTRANB
METAR KANB 211153Z AUTO 00000KT 9SM CLR 08/07 A3005 RMK AO2 SLP178
T00780067 10106 20072 51006


USA.gov is the U.S. government's official web portal to all federal, state and local government web resources and services.